Terminal Aerodrome Forecast
Issued by NWS

Home | Current Version | Previous Version | Graphics & Text | Print | Product List | Glossary On
Versions: 1 2 3 4 5 6 7 8 9 10 11 12 13 14 15 16 17 18
000
FTUS43 KBIS 111100
TAFDIK
TAF
KDIK 111124Z 1112/1212 34006KT P6SM VCFG SKC
      TEMPO 1112/1113 4SM BR
     FM111500 03011KT P6SM SCT090 BKN120
     FM120700 04007KT P6SM VCTS BKN050CB=

USA.gov is the U.S. government's official web portal to all federal, state and local government web resources and services.